sensor_id;sensor_type;location;lat;lon;timestamp;temperature;humidity
68439;SHT31;55421;51.600;5.718;2023-07-31T00:01:09;17.70;83.70
68439;SHT31;55421;51.600;5.718;2023-07-31T00:03:35;17.69;83.73
68439;SHT31;55421;51.600;5.718;2023-07-31T00:06:02;17.69;83.71
68439;SHT31;55421;51.600;5.718;2023-07-31T00:08:29;17.70;83.66
68439;SHT31;55421;51.600;5.718;2023-07-31T00:10:55;17.70;83.66
68439;SHT31;55421;51.600;5.718;2023-07-31T00:13:21;17.71;83.61
68439;SHT31;55421;51.600;5.718;2023-07-31T00:15:48;17.71;83.60
68439;SHT31;55421;51.600;5.718;2023-07-31T00:18:15;17.71;83.60
68439;SHT31;55421;51.600;5.718;2023-07-31T00:20:41;17.70;83.59
68439;SHT31;55421;51.600;5.718;2023-07-31T00:23:08;17.68;83.61
68439;SHT31;55421;51.600;5.718;2023-07-31T00:25:34;17.67;83.64
68439;SHT31;55421;51.600;5.718;2023-07-31T00:28:00;17.68;83.60
68439;SHT31;55421;51.600;5.718;2023-07-31T00:30:27;17.68;83.68
68439;SHT31;55421;51.600;5.718;2023-07-31T00:32:53;17.69;83.60
68439;SHT31;55421;51.600;5.718;2023-07-31T00:35:20;17.69;83.58
68439;SHT31;55421;51.600;5.718;2023-07-31T00:37:46;17.70;83.52
68439;SHT31;55421;51.600;5.718;2023-07-31T00:40:13;17.67;83.51
68439;SHT31;55421;51.600;5.718;2023-07-31T00:42:40;17.65;83.59
68439;SHT31;55421;51.600;5.718;2023-07-31T00:45:06;17.66;83.54
68439;SHT31;55421;51.600;5.718;2023-07-31T00:47:33;17.66;83.50
68439;SHT31;55421;51.600;5.718;2023-07-31T00:50:00;17.66;83.47
68439;SHT31;55421;51.600;5.718;2023-07-31T00:52:27;17.67;83.43
68439;SHT31;55421;51.600;5.718;2023-07-31T00:54:53;17.69;83.45
68439;SHT31;55421;51.600;5.718;2023-07-31T00:57:20;17.67;83.31
68439;SHT31;55421;51.600;5.718;2023-07-31T00:59:46;17.67;83.30
68439;SHT31;55421;51.600;5.718;2023-07-31T01:02:13;17.67;83.30
68439;SHT31;55421;51.600;5.718;2023-07-31T01:04:39;17.65;83.29
68439;SHT31;55421;51.600;5.718;2023-07-31T01:10:16;17.64;83.22
68439;SHT31;55421;51.600;5.718;2023-07-31T01:12:50;17.64;83.25
68439;SHT31;55421;51.600;5.718;2023-07-31T01:15:18;17.64;83.20
68439;SHT31;55421;51.600;5.718;2023-07-31T01:17:46;17.65;83.22
68439;SHT31;55421;51.600;5.718;2023-07-31T01:20:23;17.64;83.15
68439;SHT31;55421;51.600;5.718;2023-07-31T01:23:03;17.62;83.20
68439;SHT31;55421;51.600;5.718;2023-07-31T01:28:25;17.62;83.10
68439;SHT31;55421;51.600;5.718;2023-07-31T01:31:06;17.61;83.01
68439;SHT31;55421;51.600;5.718;2023-07-31T01:33:37;17.59;82.94
68439;SHT31;55421;51.600;5.718;2023-07-31T01:36:04;17.58;82.89
68439;SHT31;55421;51.600;5.718;2023-07-31T01:38:31;17.58;82.86
68439;SHT31;55421;51.600;5.718;2023-07-31T01:40:58;17.56;82.80
68439;SHT31;55421;51.600;5.718;2023-07-31T01:43:24;17.55;82.79
68439;SHT31;55421;51.600;5.718;2023-07-31T01:45:51;17.54;82.73
68439;SHT31;55421;51.600;5.718;2023-07-31T01:48:17;17.54;82.60
68439;SHT31;55421;51.600;5.718;2023-07-31T01:50:46;17.54;82.53
68439;SHT31;55421;51.600;5.718;2023-07-31T01:53:12;17.53;82.52
68439;SHT31;55421;51.600;5.718;2023-07-31T01:55:39;17.53;82.40
68439;SHT31;55421;51.600;5.718;2023-07-31T01:58:05;17.53;82.40
68439;SHT31;55421;51.600;5.718;2023-07-31T02:00:32;17.52;82.35
68439;SHT31;55421;51.600;5.718;2023-07-31T02:02:59;17.51;82.29
68439;SHT31;55421;51.600;5.718;2023-07-31T02:05:26;17.51;82.22
68439;SHT31;55421;51.600;5.718;2023-07-31T02:07:52;17.48;82.20
68439;SHT31;55421;51.600;5.718;2023-07-31T02:10:19;17.48;82.20
68439;SHT31;55421;51.600;5.718;2023-07-31T02:12:45;17.48;82.16
68439;SHT31;55421;51.600;5.718;2023-07-31T02:15:11;17.48;82.07
68439;SHT31;55421;51.600;5.718;2023-07-31T02:17:38;17.47;81.93
68439;SHT31;55421;51.600;5.718;2023-07-31T02:20:05;17.45;81.75
68439;SHT31;55421;51.600;5.718;2023-07-31T02:22:32;17.44;81.75
68439;SHT31;55421;51.600;5.718;2023-07-31T02:24:59;17.42;81.68
68439;SHT31;55421;51.600;5.718;2023-07-31T02:27:25;17.41;81.63
68439;SHT31;55421;51.600;5.718;2023-07-31T02:29:53;17.41;81.65
68439;SHT31;55421;51.600;5.718;2023-07-31T02:32:21;17.40;81.56
68439;SHT31;55421;51.600;5.718;2023-07-31T02:34:47;17.40;81.50
68439;SHT31;55421;51.600;5.718;2023-07-31T02:37:13;17.40;81.50
68439;SHT31;55421;51.600;5.718;2023-07-31T02:39:40;17.40;81.45
68439;SHT31;55421;51.600;5.718;2023-07-31T02:42:07;17.38;81.40
68439;SHT31;55421;51.600;5.718;2023-07-31T02:44:33;17.36;81.34
68439;SHT31;55421;51.600;5.718;2023-07-31T02:46:59;17.35;81.27
68439;SHT31;55421;51.600;5.718;2023-07-31T02:49:26;17.36;81.24
68439;SHT31;55421;51.600;5.718;2023-07-31T02:51:53;17.35;81.11
68439;SHT31;55421;51.600;5.718;2023-07-31T02:54:19;17.34;81.06
68439;SHT31;55421;51.600;5.718;2023-07-31T02:56:47;17.33;81.01
68439;SHT31;55421;51.600;5.718;2023-07-31T02:59:14;17.33;80.94
68439;SHT31;55421;51.600;5.718;2023-07-31T03:01:41;17.33;80.93
68439;SHT31;55421;51.600;5.718;2023-07-31T03:04:07;17.33;80.88
68439;SHT31;55421;51.600;5.718;2023-07-31T03:06:33;17.32;80.90
68439;SHT31;55421;51.600;5.718;2023-07-31T03:09:00;17.30;80.82
68439;SHT31;55421;51.600;5.718;2023-07-31T03:11:26;17.28;80.84
68439;SHT31;55421;51.600;5.718;2023-07-31T03:13:53;17.26;80.80
68439;SHT31;55421;51.600;5.718;2023-07-31T03:16:20;17.25;80.79
68439;SHT31;55421;51.600;5.718;2023-07-31T03:18:46;17.24;80.78
68439;SHT31;55421;51.600;5.718;2023-07-31T03:21:13;17.23;80.79
68439;SHT31;55421;51.600;5.718;2023-07-31T03:23:40;17.25;80.80
68439;SHT31;55421;51.600;5.718;2023-07-31T03:26:07;17.24;80.71
68439;SHT31;55421;51.600;5.718;2023-07-31T03:28:34;17.25;80.70
68439;SHT31;55421;51.600;5.718;2023-07-31T03:31:00;17.25;80.71
68439;SHT31;55421;51.600;5.718;2023-07-31T03:33:27;17.24;80.72
68439;SHT31;55421;51.600;5.718;2023-07-31T03:35:53;17.25;80.78
68439;SHT31;55421;51.600;5.718;2023-07-31T03:38:20;17.25;80.79
68439;SHT31;55421;51.600;5.718;2023-07-31T03:40:46;17.27;80.80
68439;SHT31;55421;51.600;5.718;2023-07-31T03:43:13;17.29;80.80
68439;SHT31;55421;51.600;5.718;2023-07-31T03:45:41;17.28;80.80
68439;SHT31;55421;51.600;5.718;2023-07-31T03:48:08;17.28;80.80
68439;SHT31;55421;51.600;5.718;2023-07-31T03:50:35;17.27;80.80
68439;SHT31;55421;51.600;5.718;2023-07-31T03:53:01;17.26;80.79
68439;SHT31;55421;51.600;5.718;2023-07-31T03:55:28;17.28;80.80
68439;SHT31;55421;51.600;5.718;2023-07-31T03:57:54;17.30;80.80
68439;SHT31;55421;51.600;5.718;2023-07-31T04:00:20;17.32;80.80
68439;SHT31;55421;51.600;5.718;2023-07-31T04:02:48;17.35;80.81
68439;SHT31;55421;51.600;5.718;2023-07-31T04:05:14;17.35;80.82
68439;SHT31;55421;51.600;5.718;2023-07-31T04:07:41;17.35;80.80
68439;SHT31;55421;51.600;5.718;2023-07-31T04:10:07;17.35;80.80
68439;SHT31;55421;51.600;5.718;2023-07-31T04:12:35;17.36;80.80
68439;SHT31;55421;51.600;5.718;2023-07-31T04:15:01;17.38;80.81
68439;SHT31;55421;51.600;5.718;2023-07-31T04:17:28;17.41;80.85
68439;SHT31;55421;51.600;5.718;2023-07-31T04:19:54;17.42;80.85
68439;SHT31;55421;51.600;5.718;2023-07-31T04:22:20;17.44;80.90
68439;SHT31;55421;51.600;5.718;2023-07-31T04:24:47;17.44;80.91
68439;SHT31;55421;51.600;5.718;2023-07-31T04:27:13;17.47;80.96
68439;SHT31;55421;51.600;5.718;2023-07-31T04:29:40;17.47;80.92
68439;SHT31;55421;51.600;5.718;2023-07-31T04:32:08;17.49;81.00
68439;SHT31;55421;51.600;5.718;2023-07-31T04:34:34;17.51;81.06
68439;SHT31;55421;51.600;5.718;2023-07-31T04:37:01;17.53;81.14
68439;SHT31;55421;51.600;5.718;2023-07-31T04:39:27;17.53;81.21
68439;SHT31;55421;51.600;5.718;2023-07-31T04:41:54;17.51;81.27
68439;SHT31;55421;51.600;5.718;2023-07-31T04:44:20;17.51;81.32
68439;SHT31;55421;51.600;5.718;2023-07-31T04:46:47;17.53;81.35
68439;SHT31;55421;51.600;5.718;2023-07-31T04:49:13;17.56;81.39
68439;SHT31;55421;51.600;5.718;2023-07-31T04:51:40;17.59;81.40
68439;SHT31;55421;51.600;5.718;2023-07-31T04:54:06;17.62;81.44
68439;SHT31;55421;51.600;5.718;2023-07-31T04:56:33;17.63;81.45
68439;SHT31;55421;51.600;5.718;2023-07-31T04:58:59;17.65;81.49
68439;SHT31;55421;51.600;5.718;2023-07-31T05:01:26;17.65;81.50
68439;SHT31;55421;51.600;5.718;2023-07-31T05:03:52;17.66;81.49
68439;SHT31;55421;51.600;5.718;2023-07-31T05:06:18;17.67;81.51
68439;SHT31;55421;51.600;5.718;2023-07-31T05:08:46;17.69;81.50
68439;SHT31;55421;51.600;5.718;2023-07-31T05:11:13;17.72;81.59
68439;SHT31;55421;51.600;5.718;2023-07-31T05:13:39;17.74;81.57
68439;SHT31;55421;51.600;5.718;2023-07-31T05:16:06;17.78;81.61
68439;SHT31;55421;51.600;5.718;2023-07-31T05:18:32;17.80;81.60
68439;SHT31;55421;51.600;5.718;2023-07-31T05:20:58;17.82;81.60
68439;SHT31;55421;51.600;5.718;2023-07-31T05:23:25;17.84;81.59
68439;SHT31;55421;51.600;5.718;2023-07-31T05:25:51;17.87;81.60
68439;SHT31;55421;51.600;5.718;2023-07-31T05:28:17;17.87;81.61
68439;SHT31;55421;51.600;5.718;2023-07-31T05:30:44;17.89;81.76
68439;SHT31;55421;51.600;5.718;2023-07-31T05:33:10;17.87;81.98
68439;SHT31;55421;51.600;5.718;2023-07-31T05:35:37;17.86;82.12
68439;SHT31;55421;51.600;5.718;2023-07-31T05:38:04;17.86;82.26
68439;SHT31;55421;51.600;5.718;2023-07-31T05:40:32;17.85;82.40
68439;SHT31;55421;51.600;5.718;2023-07-31T05:42:59;17.85;82.52
68439;SHT31;55421;51.600;5.718;2023-07-31T05:45:26;17.85;82.60
68439;SHT31;55421;51.600;5.718;2023-07-31T05:47:52;17.86;82.69
68439;SHT31;55421;51.600;5.718;2023-07-31T05:50:19;17.86;82.77
68439;SHT31;55421;51.600;5.718;2023-07-31T05:52:45;17.88;82.87
68439;SHT31;55421;51.600;5.718;2023-07-31T05:55:11;17.87;83.00
68439;SHT31;55421;51.600;5.718;2023-07-31T05:57:38;17.85;83.14
68439;SHT31;55421;51.600;5.718;2023-07-31T06:00:05;17.84;83.21
68439;SHT31;55421;51.600;5.718;2023-07-31T06:02:32;17.82;83.33
68439;SHT31;55421;51.600;5.718;2023-07-31T06:05:03;17.79;83.47
68439;SHT31;55421;51.600;5.718;2023-07-31T06:07:32;17.76;83.63
68439;SHT31;55421;51.600;5.718;2023-07-31T06:09:58;17.73;83.78
68439;SHT31;55421;51.600;5.718;2023-07-31T06:12:31;17.71;83.93
68439;SHT31;55421;51.600;5.718;2023-07-31T06:15:02;17.68;84.07
68439;SHT31;55421;51.600;5.718;2023-07-31T06:17:29;17.68;84.19
68439;SHT31;55421;51.600;5.718;2023-07-31T06:19:56;17.66;84.28
68439;SHT31;55421;51.600;5.718;2023-07-31T06:22:23;17.66;84.40
68439;SHT31;55421;51.600;5.718;2023-07-31T06:24:49;17.67;84.47
68439;SHT31;55421;51.600;5.718;2023-07-31T06:27:16;17.67;84.57
68439;SHT31;55421;51.600;5.718;2023-07-31T06:29:42;17.67;84.68
68439;SHT31;55421;51.600;5.718;2023-07-31T06:32:09;17.68;84.71
68439;SHT31;55421;51.600;5.718;2023-07-31T06:34:35;17.69;84.78
68439;SHT31;55421;51.600;5.718;2023-07-31T06:37:02;17.69;84.85
68439;SHT31;55421;51.600;5.718;2023-07-31T06:39:28;17.70;84.91
68439;SHT31;55421;51.600;5.718;2023-07-31T06:41:54;17.74;85.00
68439;SHT31;55421;51.600;5.718;2023-07-31T06:44:21;17.76;85.07
68439;SHT31;55421;51.600;5.718;2023-07-31T06:46:47;17.78;85.08
68439;SHT31;55421;51.600;5.718;2023-07-31T06:49:14;17.79;85.09
68439;SHT31;55421;51.600;5.718;2023-07-31T06:51:43;17.81;85.14
68439;SHT31;55421;51.600;5.718;2023-07-31T06:54:10;17.83;85.14
68439;SHT31;55421;51.600;5.718;2023-07-31T06:56:37;17.86;85.18
68439;SHT31;55421;51.600;5.718;2023-07-31T06:59:03;17.88;85.16
68439;SHT31;55421;51.600;5.718;2023-07-31T07:01:30;17.89;85.11
68439;SHT31;55421;51.600;5.718;2023-07-31T07:03:56;17.89;85.10
68439;SHT31;55421;51.600;5.718;2023-07-31T07:06:23;17.89;85.11
68439;SHT31;55421;51.600;5.718;2023-07-31T07:08:49;17.90;85.18
68439;SHT31;55421;51.600;5.718;2023-07-31T07:11:15;17.90;85.13
68439;SHT31;55421;51.600;5.718;2023-07-31T07:13:42;17.92;85.20
68439;SHT31;55421;51.600;5.718;2023-07-31T07:16:08;17.94;85.22
68439;SHT31;55421;51.600;5.718;2023-07-31T07:18:36;17.93;85.21
68439;SHT31;55421;51.600;5.718;2023-07-31T07:21:03;17.93;85.29
68439;SHT31;55421;51.600;5.718;2023-07-31T07:23:29;17.94;85.28
68439;SHT31;55421;51.600;5.718;2023-07-31T07:25:55;17.98;85.34
68439;SHT31;55421;51.600;5.718;2023-07-31T07:28:22;18.02;85.33
68439;SHT31;55421;51.600;5.718;2023-07-31T07:30:52;18.06;85.29
68439;SHT31;55421;51.600;5.718;2023-07-31T07:33:19;18.08;85.23
68439;SHT31;55421;51.600;5.718;2023-07-31T07:35:46;18.09;85.29
68439;SHT31;55421;51.600;5.718;2023-07-31T07:38:13;18.11;85.19
68439;SHT31;55421;51.600;5.718;2023-07-31T07:40:41;18.11;85.22
68439;SHT31;55421;51.600;5.718;2023-07-31T07:43:08;18.14;85.24
68439;SHT31;55421;51.600;5.718;2023-07-31T07:45:34;18.16;85.20
68439;SHT31;55421;51.600;5.718;2023-07-31T07:48:01;18.16;85.20
68439;SHT31;55421;51.600;5.718;2023-07-31T07:50:27;18.18;85.21
68439;SHT31;55421;51.600;5.718;2023-07-31T07:52:54;18.16;85.10
68439;SHT31;55421;51.600;5.718;2023-07-31T07:55:20;18.16;85.10
68439;SHT31;55421;51.600;5.718;2023-07-31T07:57:47;18.13;85.10
68439;SHT31;55421;51.600;5.718;2023-07-31T08:00:16;18.13;85.21
68439;SHT31;55421;51.600;5.718;2023-07-31T08:02:43;18.12;85.19
68439;SHT31;55421;51.600;5.718;2023-07-31T08:05:10;18.13;85.14
68439;SHT31;55421;51.600;5.718;2023-07-31T08:07:36;18.13;85.16
68439;SHT31;55421;51.600;5.718;2023-07-31T08:10:03;18.15;85.11
68439;SHT31;55421;51.600;5.718;2023-07-31T08:12:29;18.13;85.01
68439;SHT31;55421;51.600;5.718;2023-07-31T08:14:56;18.10;85.02
68439;SHT31;55421;51.600;5.718;2023-07-31T08:17:23;18.08;85.08
68439;SHT31;55421;51.600;5.718;2023-07-31T08:19:50;18.10;85.18
68439;SHT31;55421;51.600;5.718;2023-07-31T08:22:16;18.12;85.20
68439;SHT31;55421;51.600;5.718;2023-07-31T08:24:42;18.16;85.22
68439;SHT31;55421;51.600;5.718;2023-07-31T08:27:09;18.20;85.21
68439;SHT31;55421;51.600;5.718;2023-07-31T08:29:36;18.22;85.19
68439;SHT31;55421;51.600;5.718;2023-07-31T08:32:02;18.25;85.16
68439;SHT31;55421;51.600;5.718;2023-07-31T08:34:29;18.27;85.24
68439;SHT31;55421;51.600;5.718;2023-07-31T08:36:55;18.32;85.19
68439;SHT31;55421;51.600;5.718;2023-07-31T08:39:22;18.31;85.19
68439;SHT31;55421;51.600;5.718;2023-07-31T08:41:48;18.30;85.15
68439;SHT31;55421;51.600;5.718;2023-07-31T08:44:14;18.29;85.19
68439;SHT31;55421;51.600;5.718;2023-07-31T08:46:42;18.31;85.18
68439;SHT31;55421;51.600;5.718;2023-07-31T08:49:09;18.32;85.17
68439;SHT31;55421;51.600;5.718;2023-07-31T08:51:37;18.34;85.24
68439;SHT31;55421;51.600;5.718;2023-07-31T08:54:03;18.36;85.20
68439;SHT31;55421;51.600;5.718;2023-07-31T08:56:31;18.38;85.17
68439;SHT31;55421;51.600;5.718;2023-07-31T08:58:59;18.38;85.05
68439;SHT31;55421;51.600;5.718;2023-07-31T09:01:30;18.38;85.08
68439;SHT31;55421;51.600;5.718;2023-07-31T09:04:02;18.37;85.01
68439;SHT31;55421;51.600;5.718;2023-07-31T09:06:30;18.39;85.08
68439;SHT31;55421;51.600;5.718;2023-07-31T09:08:58;18.41;85.00
68439;SHT31;55421;51.600;5.718;2023-07-31T09:11:24;18.39;85.02
68439;SHT31;55421;51.600;5.718;2023-07-31T09:13:51;18.36;85.10
68439;SHT31;55421;51.600;5.718;2023-07-31T09:16:26;18.36;85.01
68439;SHT31;55421;51.600;5.718;2023-07-31T09:18:58;18.34;84.97
68439;SHT31;55421;51.600;5.718;2023-07-31T09:21:27;18.33;84.98
68439;SHT31;55421;51.600;5.718;2023-07-31T09:23:54;18.34;85.00
68439;SHT31;55421;51.600;5.718;2023-07-31T09:26:34;18.34;85.03
68439;SHT31;55421;51.600;5.718;2023-07-31T09:29:06;18.34;85.04
68439;SHT31;55421;51.600;5.718;2023-07-31T09:31:47;18.35;85.01
68439;SHT31;55421;51.600;5.718;2023-07-31T09:34:18;18.39;84.99
68439;SHT31;55421;51.600;5.718;2023-07-31T09:36:49;18.43;84.92
68439;SHT31;55421;51.600;5.718;2023-07-31T09:39:17;18.48;84.95
68439;SHT31;55421;51.600;5.718;2023-07-31T09:41:58;18.52;84.89
68439;SHT31;55421;51.600;5.718;2023-07-31T09:44:38;18.59;84.98
68439;SHT31;55421;51.600;5.718;2023-07-31T09:47:23;18.63;84.82
68439;SHT31;55421;51.600;5.718;2023-07-31T09:49:53;18.64;84.58
68439;SHT31;55421;51.600;5.718;2023-07-31T09:52:20;18.62;84.48
68439;SHT31;55421;51.600;5.718;2023-07-31T09:54:46;18.64;84.47
68439;SHT31;55421;51.600;5.718;2023-07-31T09:57:13;18.68;84.50
68439;SHT31;55421;51.600;5.718;2023-07-31T09:59:50;18.73;84.49
68439;SHT31;55421;51.600;5.718;2023-07-31T10:02:22;18.79;84.28
68439;SHT31;55421;51.600;5.718;2023-07-31T10:04:49;18.83;84.21
68439;SHT31;55421;51.600;5.718;2023-07-31T10:07:17;18.87;84.19
68439;SHT31;55421;51.600;5.718;2023-07-31T10:09:46;18.89;84.04
68439;SHT31;55421;51.600;5.718;2023-07-31T10:12:18;18.92;84.09
68439;SHT31;55421;51.600;5.718;2023-07-31T10:14:51;19.00;83.98
68439;SHT31;55421;51.600;5.718;2023-07-31T10:17:24;19.08;83.84
68439;SHT31;55421;51.600;5.718;2023-07-31T10:19:54;19.19;83.82
68439;SHT31;55421;51.600;5.718;2023-07-31T10:22:25;19.29;83.81
68439;SHT31;55421;51.600;5.718;2023-07-31T10:24:54;19.34;83.59
68439;SHT31;55421;51.600;5.718;2023-07-31T10:27:24;19.34;83.32
68439;SHT31;55421;51.600;5.718;2023-07-31T10:29:51;19.33;83.18
68439;SHT31;55421;51.600;5.718;2023-07-31T10:32:21;19.33;83.01
68439;SHT31;55421;51.600;5.718;2023-07-31T10:34:50;19.34;83.00
68439;SHT31;55421;51.600;5.718;2023-07-31T10:37:21;19.38;82.82
68439;SHT31;55421;51.600;5.718;2023-07-31T10:42:28;19.43;82.90
68439;SHT31;55421;51.600;5.718;2023-07-31T10:45:04;19.44;82.82
68439;SHT31;55421;51.600;5.718;2023-07-31T10:47:37;19.46;82.64
68439;SHT31;55421;51.600;5.718;2023-07-31T10:50:18;19.48;82.48
68439;SHT31;55421;51.600;5.718;2023-07-31T10:52:47;19.52;82.49
68439;SHT31;55421;51.600;5.718;2023-07-31T10:57:58;19.58;82.15
68439;SHT31;55421;51.600;5.718;2023-07-31T11:00:40;19.58;82.19
68439;SHT31;55421;51.600;5.718;2023-07-31T11:08:30;19.63;82.04
68439;SHT31;55421;51.600;5.718;2023-07-31T11:13:45;19.63;81.71
68439;SHT31;55421;51.600;5.718;2023-07-31T11:16:19;19.66;81.69
68439;SHT31;55421;51.600;5.718;2023-07-31T11:18:48;19.73;81.48
68439;SHT31;55421;51.600;5.718;2023-07-31T11:21:18;19.78;81.07
68439;SHT31;55421;51.600;5.718;2023-07-31T11:23:48;19.90;81.18
68439;SHT31;55421;51.600;5.718;2023-07-31T11:26:18;20.01;81.12
68439;SHT31;55421;51.600;5.718;2023-07-31T11:28:48;20.13;80.84
68439;SHT31;55421;51.600;5.718;2023-07-31T11:31:16;20.22;80.64
68439;SHT31;55421;51.600;5.718;2023-07-31T11:33:44;20.29;80.38
68439;SHT31;55421;51.600;5.718;2023-07-31T11:36:18;20.30;80.23
68439;SHT31;55421;51.600;5.718;2023-07-31T11:38:46;20.33;80.00
68439;SHT31;55421;51.600;5.718;2023-07-31T11:41:15;20.34;79.93
68439;SHT31;55421;51.600;5.718;2023-07-31T11:43:42;20.37;79.81
68439;SHT31;55421;51.600;5.718;2023-07-31T11:46:09;20.39;79.62
68439;SHT31;55421;51.600;5.718;2023-07-31T11:48:36;20.38;79.39
68439;SHT31;55421;51.600;5.718;2023-07-31T11:51:04;20.41;79.24
68439;SHT31;55421;51.600;5.718;2023-07-31T11:53:40;20.45;79.12
68439;SHT31;55421;51.600;5.718;2023-07-31T11:56:19;20.52;79.03
68439;SHT31;55421;51.600;5.718;2023-07-31T11:58:53;20.58;79.03
68439;SHT31;55421;51.600;5.718;2023-07-31T12:01:28;20.62;79.07
68439;SHT31;55421;51.600;5.718;2023-07-31T12:03:55;20.64;79.10
68439;SHT31;55421;51.600;5.718;2023-07-31T12:06:32;20.64;78.97
68439;SHT31;55421;51.600;5.718;2023-07-31T12:09:04;20.64;78.81
68439;SHT31;55421;51.600;5.718;2023-07-31T12:11:31;20.63;78.63
68439;SHT31;55421;51.600;5.718;2023-07-31T12:14:19;20.57;78.61
68439;SHT31;55421;51.600;5.718;2023-07-31T12:16:58;20.52;78.58
68439;SHT31;55421;51.600;5.718;2023-07-31T12:19:27;20.49;78.59
68439;SHT31;55421;51.600;5.718;2023-07-31T12:21:59;20.47;78.80
68439;SHT31;55421;51.600;5.718;2023-07-31T12:24:26;20.49;79.01
68439;SHT31;55421;51.600;5.718;2023-07-31T12:26:53;20.50;78.93
68439;SHT31;55421;51.600;5.718;2023-07-31T12:29:21;20.48;78.76
68439;SHT31;55421;51.600;5.718;2023-07-31T12:31:47;20.42;78.85
68439;SHT31;55421;51.600;5.718;2023-07-31T12:34:15;20.41;79.10
68439;SHT31;55421;51.600;5.718;2023-07-31T12:36:47;20.41;79.18
68439;SHT31;55421;51.600;5.718;2023-07-31T12:39:16;20.44;79.35
68439;SHT31;55421;51.600;5.718;2023-07-31T12:41:43;20.49;79.15
68439;SHT31;55421;51.600;5.718;2023-07-31T12:44:09;20.53;79.04
68439;SHT31;55421;51.600;5.718;2023-07-31T12:46:36;20.55;79.02
68439;SHT31;55421;51.600;5.718;2023-07-31T12:49:02;20.55;78.95
68439;SHT31;55421;51.600;5.718;2023-07-31T12:51:29;20.52;79.05
68439;SHT31;55421;51.600;5.718;2023-07-31T12:53:55;20.53;79.31
68439;SHT31;55421;51.600;5.718;2023-07-31T12:56:22;20.55;79.49
68439;SHT31;55421;51.600;5.718;2023-07-31T12:58:48;20.53;79.34
68439;SHT31;55421;51.600;5.718;2023-07-31T13:01:14;20.49;79.39
68439;SHT31;55421;51.600;5.718;2023-07-31T13:03:41;20.45;79.62
68439;SHT31;55421;51.600;5.718;2023-07-31T13:06:07;20.42;79.88
68439;SHT31;55421;51.600;5.718;2023-07-31T13:08:34;20.40;80.00
68439;SHT31;55421;51.600;5.718;2023-07-31T13:11:00;20.36;80.16
68439;SHT31;55421;51.600;5.718;2023-07-31T13:13:27;20.35;80.45
68439;SHT31;55421;51.600;5.718;2023-07-31T13:15:53;20.32;80.62
68439;SHT31;55421;51.600;5.718;2023-07-31T13:18:19;20.30;80.75
68439;SHT31;55421;51.600;5.718;2023-07-31T13:20:46;20.28;80.76
68439;SHT31;55421;51.600;5.718;2023-07-31T13:23:12;20.26;80.80
68439;SHT31;55421;51.600;5.718;2023-07-31T13:25:39;20.24;80.78
68439;SHT31;55421;51.600;5.718;2023-07-31T13:28:05;20.24;80.76
68439;SHT31;55421;51.600;5.718;2023-07-31T13:30:32;20.23;80.76
68439;SHT31;55421;51.600;5.718;2023-07-31T13:32:59;20.23;80.62
68439;SHT31;55421;51.600;5.718;2023-07-31T13:35:25;20.26;80.55
68439;SHT31;55421;51.600;5.718;2023-07-31T13:37:52;20.30;80.49
68439;SHT31;55421;51.600;5.718;2023-07-31T13:40:18;20.36;80.47
68439;SHT31;55421;51.600;5.718;2023-07-31T13:42:45;20.41;80.36
68439;SHT31;55421;51.600;5.718;2023-07-31T13:45:13;20.45;80.18
68439;SHT31;55421;51.600;5.718;2023-07-31T13:47:40;20.46;79.91
68439;SHT31;55421;51.600;5.718;2023-07-31T13:50:06;20.48;79.97
68439;SHT31;55421;51.600;5.718;2023-07-31T13:52:33;20.49;79.90
68439;SHT31;55421;51.600;5.718;2023-07-31T13:55:00;20.47;79.67
68439;SHT31;55421;51.600;5.718;2023-07-31T13:57:26;20.42;79.67
68439;SHT31;55421;51.600;5.718;2023-07-31T13:59:53;20.39;79.86
68439;SHT31;55421;51.600;5.718;2023-07-31T14:02:20;20.37;80.18
68439;SHT31;55421;51.600;5.718;2023-07-31T14:04:46;20.34;80.39
68439;SHT31;55421;51.600;5.718;2023-07-31T14:07:12;20.26;80.63
68439;SHT31;55421;51.600;5.718;2023-07-31T14:09:39;20.14;80.93
68439;SHT31;55421;51.600;5.718;2023-07-31T14:12:05;20.08;81.20
68439;SHT31;55421;51.600;5.718;2023-07-31T14:14:32;20.04;81.39
68439;SHT31;55421;51.600;5.718;2023-07-31T14:17:00;20.03;81.56
68439;SHT31;55421;51.600;5.718;2023-07-31T14:19:26;20.07;81.68
68439;SHT31;55421;51.600;5.718;2023-07-31T14:21:52;20.05;81.73
68439;SHT31;55421;51.600;5.718;2023-07-31T14:24:19;20.06;81.74
68439;SHT31;55421;51.600;5.718;2023-07-31T14:26:45;20.04;81.91
68439;SHT31;55421;51.600;5.718;2023-07-31T14:29:12;20.01;82.03
68439;SHT31;55421;51.600;5.718;2023-07-31T14:31:38;19.99;82.12
68439;SHT31;55421;51.600;5.718;2023-07-31T14:34:05;19.95;82.28
68439;SHT31;55421;51.600;5.718;2023-07-31T14:36:31;19.90;82.37
68439;SHT31;55421;51.600;5.718;2023-07-31T14:38:57;19.84;82.53
68439;SHT31;55421;51.600;5.718;2023-07-31T14:41:24;19.79;82.72
68439;SHT31;55421;51.600;5.718;2023-07-31T14:43:50;19.77;82.90
68439;SHT31;55421;51.600;5.718;2023-07-31T14:46:17;19.76;83.01
68439;SHT31;55421;51.600;5.718;2023-07-31T14:48:43;19.77;83.06
68439;SHT31;55421;51.600;5.718;2023-07-31T14:51:10;19.79;83.13
68439;SHT31;55421;51.600;5.718;2023-07-31T14:53:36;19.78;83.14
68439;SHT31;55421;51.600;5.718;2023-07-31T14:56:03;19.79;83.18
68439;SHT31;55421;51.600;5.718;2023-07-31T14:58:29;19.80;83.20
68439;SHT31;55421;51.600;5.718;2023-07-31T15:00:56;19.79;83.14
68439;SHT31;55421;51.600;5.718;2023-07-31T15:03:22;19.75;83.20
68439;SHT31;55421;51.600;5.718;2023-07-31T15:05:51;19.72;83.25
68439;SHT31;55421;51.600;5.718;2023-07-31T15:08:17;19.68;83.15
68439;SHT31;55421;51.600;5.718;2023-07-31T15:10:45;19.66;83.21
68439;SHT31;55421;51.600;5.718;2023-07-31T15:13:11;19.63;83.21
68439;SHT31;55421;51.600;5.718;2023-07-31T15:15:38;19.63;83.22
68439;SHT31;55421;51.600;5.718;2023-07-31T15:18:04;19.62;83.22
68439;SHT31;55421;51.600;5.718;2023-07-31T15:20:30;19.60;83.17
68439;SHT31;55421;51.600;5.718;2023-07-31T15:22:58;19.58;83.14
68439;SHT31;55421;51.600;5.718;2023-07-31T15:25:25;19.57;83.25
68439;SHT31;55421;51.600;5.718;2023-07-31T15:27:51;19.57;83.26
68439;SHT31;55421;51.600;5.718;2023-07-31T15:30:17;19.58;83.37
68439;SHT31;55421;51.600;5.718;2023-07-31T15:32:44;19.59;83.39
68439;SHT31;55421;51.600;5.718;2023-07-31T15:35:14;19.58;83.40
68439;SHT31;55421;51.600;5.718;2023-07-31T15:37:41;19.56;83.40
68439;SHT31;55421;51.600;5.718;2023-07-31T15:40:07;19.55;83.47
68439;SHT31;55421;51.600;5.718;2023-07-31T15:42:34;19.56;83.56
68439;SHT31;55421;51.600;5.718;2023-07-31T15:45:06;19.55;83.45
68439;SHT31;55421;51.600;5.718;2023-07-31T15:47:34;19.55;83.41
68439;SHT31;55421;51.600;5.718;2023-07-31T15:50:01;19.55;83.39
68439;SHT31;55421;51.600;5.718;2023-07-31T15:52:28;19.54;83.43